Time;durP1;ratioP1;P1;durP2;ratioP2;P2;SDS_P1;SDS_P2;PMS_P1;PMS_P2;Temp;Humidity;BMP_temperature;BMP_pressure;BME280_temperature;BME280_humidity;BME280_pressure;Samples;Min_cycle;Max_cycle;Signal;HPM_P1;HPM_P2
2021/03/28 00:02:23;;;;;;;5.75;1.85;;;7.80;76.40;;;;;;5060034;28;20144;-70
2021/03/28 00:05:06;;;;;;;3.03;1.63;;;7.80;76.40;;;;;;5073410;28;20475;-70
2021/03/28 00:08:14;;;;;;;3.85;1.65;;;7.80;76.50;;;;;;5073920;28;20047;-70
2021/03/28 00:10:44;;;;;;;17.95;2.20;;;7.80;76.40;;;;;;5073338;28;20040;-70
2021/03/28 00:13:18;;;;;;;2.63;0.98;;;7.90;76.30;;;;;;5073455;28;20024;-71
2021/03/28 00:15:56;;;;;;;1.05;0.90;;;7.80;76.30;;;;;;5073752;28;20488;-70
2021/03/28 00:18:27;;;;;;;7.78;1.88;;;7.90;76.30;;;;;;5073066;28;20476;-70
2021/03/28 00:21:12;;;;;;;0.60;0.60;;;7.80;76.30;;;;;;5073564;28;20130;-70
2021/03/28 00:24:10;;;;;;;3.03;1.63;;;7.90;76.40;;;;;;5073139;28;20387;-70
2021/03/28 00:26:49;;;;;;;8.57;2.38;;;7.90;76.40;;;;;;5064729;28;20044;-70
2021/03/28 00:29:23;;;;;;;4.38;1.20;;;7.80;76.20;;;;;;5073698;28;20028;-70
2021/03/28 00:32:00;;;;;;;9.82;1.13;;;7.90;76.10;;;;;;5072909;28;20101;-70
2021/03/28 00:34:37;;;;;;;0.75;0.75;;;7.80;76.20;;;;;;5073425;28;20085;-71
2021/03/28 00:37:09;;;;;;;5.57;1.30;;;7.80;76.10;;;;;;5073364;28;20395;-70
2021/03/28 00:39:46;;;;;;;7.60;2.53;;;7.80;76.20;;;;;;5072971;28;20157;-70
2021/03/28 00:42:29;;;;;;;5.97;2.70;;;7.70;76.10;;;;;;5072856;28;20487;-70
2021/03/28 00:45:18;;;;;;;3.25;1.63;;;7.70;76.20;;;;;;5073111;28;20049;-70
2021/03/28 00:47:56;;;;;;;4.30;1.58;;;7.70;76.30;;;;;;5035757;28;20040;-70
2021/03/28 00:50:22;;;;;;;5.93;1.83;;;7.70;76.30;;;;;;5073179;28;20074;-70
2021/03/28 00:52:57;;;;;;;8.10;3.63;;;7.70;76.50;;;;;;5054467;28;20028;-70
2021/03/28 00:55:32;;;;;;;6.95;1.85;;;7.70;76.60;;;;;;5054969;28;20025;-70
2021/03/28 00:58:08;;;;;;;8.65;1.88;;;7.70;76.70;;;;;;5078174;28;20044;-70
2021/03/28 01:01:04;;;;;;;2.85;1.35;;;7.70;76.70;;;;;;5079931;28;20459;-70
2021/03/28 01:03:59;;;;;;;10.65;1.98;;;7.60;76.70;;;;;;5072968;28;20037;-71
2021/03/28 01:06:34;;;;;;;19.25;2.20;;;7.60;76.80;;;;;;5072379;28;20491;-71
2021/03/28 01:09:38;;;;;;;2.42;1.27;;;7.60;76.70;;;;;;5072698;28;20074;-70
2021/03/28 01:12:41;;;;;;;4.27;1.83;;;7.60;76.90;;;;;;5073154;28;20047;-70
2021/03/28 01:15:44;;;;;;;6.07;2.55;;;7.60;77.00;;;;;;5072266;28;20279;-70
2021/03/28 01:18:30;;;;;;;8.63;2.78;;;7.50;77.20;;;;;;5072765;28;20081;-70
2021/03/28 01:21:37;;;;;;;7.20;2.65;;;7.50;77.50;;;;;;5072386;28;20365;-70
2021/03/28 01:24:11;;;;;;;12.63;2.67;;;7.50;77.60;;;;;;5072483;28;20029;-70
2021/03/28 01:26:52;;;;;;;9.63;1.83;;;7.50;77.80;;;;;;5072723;28;20028;-70
2021/03/28 01:29:29;;;;;;;3.90;1.48;;;7.40;77.90;;;;;;5072607;28;20079;-70
2021/03/28 01:32:17;;;;;;;3.95;1.48;;;7.40;78.10;;;;;;5072452;28;20032;-70
2021/03/28 01:34:49;;;;;;;9.20;2.25;;;7.40;78.20;;;;;;5072080;28;20040;-70
2021/03/28 01:37:31;;;;;;;0.93;0.85;;;7.50;78.30;;;;;;5072683;28;20419;-70
2021/03/28 01:40:36;;;;;;;3.67;2.35;;;7.50;78.40;;;;;;5072511;28;20052;-70
2021/03/28 01:43:42;;;;;;;10.30;2.05;;;7.50;78.40;;;;;;5072101;28;20044;-70
2021/03/28 01:46:43;;;;;;;8.27;1.73;;;7.50;78.50;;;;;;5078378;28;20020;-70
2021/03/28 01:49:22;;;;;;;6.03;1.77;;;7.50;78.60;;;;;;5075370;28;20395;-70
2021/03/28 01:52:00;;;;;;;6.65;1.48;;;7.50;78.70;;;;;;5072510;28;20106;-70
2021/03/28 01:54:48;;;;;;;12.35;1.85;;;7.50;78.70;;;;;;5072324;28;20035;-71
2021/03/28 01:57:22;;;;;;;8.13;3.20;;;7.60;78.80;;;;;;5071996;28;20024;-70
2021/03/28 02:00:05;;;;;;;3.92;1.42;;;7.50;78.80;;;;;;5071972;28;20040;-70
2021/03/28 02:03:28;;;;;;;7.22;3.20;;;7.50;78.80;;;;;;5071781;28;20039;-70
2021/03/28 02:06:12;;;;;;;7.72;2.47;;;7.60;78.90;;;;;;5029841;28;20112;-69
2021/03/28 02:08:47;;;;;;;11.68;1.73;;;7.60;78.80;;;;;;5030279;28;20088;-70
2021/03/28 02:11:28;;;;;;;1.85;1.23;;;7.60;78.80;;;;;;5056823;28;20047;-70
2021/03/28 02:14:08;;;;;;;1.55;0.77;;;7.60;78.90;;;;;;5072075;28;20028;-70
2021/03/28 02:16:53;;;;;;;9.80;2.42;;;7.60;79.00;;;;;;5071761;28;20040;-70
2021/03/28 02:19:30;;;;;;;2.85;1.20;;;7.60;79.10;;;;;;5053989;28;20024;-69
2021/03/28 02:22:02;;;;;;;6.82;2.20;;;7.70;79.20;;;;;;5075082;28;20395;-69
2021/03/28 02:24:37;;;;;;;3.65;1.83;;;7.70;79.30;;;;;;5088967;28;20039;-69
2021/03/28 02:27:27;;;;;;;2.67;1.67;;;7.70;79.40;;;;;;5075935;28;20371;-69
2021/03/28 02:30:06;;;;;;;2.72;1.30;;;7.70;79.40;;;;;;5075944;28;20388;-69
2021/03/28 02:32:43;;;;;;;18.23;3.10;;;7.70;79.40;;;;;;5075532;28;20085;-69
2021/03/28 02:35:34;;;;;;;10.13;2.30;;;7.70;79.50;;;;;;5075730;28;20020;-69
2021/03/28 02:38:33;;;;;;;5.85;2.22;;;7.70;79.60;;;;;;5075358;28;20024;-69
2021/03/28 02:41:20;;;;;;;4.15;1.83;;;7.70;79.70;;;;;;5075445;28;20032;-69
2021/03/28 02:43:49;;;;;;;7.47;1.65;;;7.70;79.80;;;;;;5083969;28;20028;-69
2021/03/28 02:46:40;;;;;;;9.80;2.08;;;7.70;79.90;;;;;;5074996;28;20037;-69
2021/03/28 02:49:30;;;;;;;6.50;2.33;;;7.70;80.10;;;;;;5079909;28;20503;-69
2021/03/28 02:52:32;;;;;;;5.72;1.90;;;7.70;80.20;;;;;;5091641;28;20055;-69
2021/03/28 02:55:30;;;;;;;11.43;2.42;;;7.70;80.30;;;;;;5089804;28;20475;-69
2021/03/28 02:58:14;;;;;;;9.88;1.55;;;7.70;80.30;;;;;;5084312;28;20051;-69
2021/03/28 03:00:57;;;;;;;;;;;7.70;80.40;;;;;;5075412;28;20048;-69
2021/03/28 03:03:23;;;;;;;4.55;1.83;;;7.70;80.40;;;;;;5089065;28;19908;-69
2021/03/28 03:06:12;;;;;;;12.70;2.83;;;7.70;80.30;;;;;;5094765;28;20111;-69
2021/03/28 03:09:11;;;;;;;12.68;2.80;;;7.80;80.60;;;;;;5080251;28;20035;-69
2021/03/28 03:11:48;;;;;;;10.52;2.88;;;7.70;80.60;;;;;;5075213;28;20028;-69
2021/03/28 03:14:42;;;;;;;11.40;2.30;;;7.80;80.60;;;;;;5074468;28;20029;-69
2021/03/28 03:17:35;;;;;;;9.90;1.92;;;7.80;80.70;;;;;;5075267;28;20108;-69
2021/03/28 03:20:19;;;;;;;4.75;1.75;;;7.80;80.60;;;;;;5084728;28;20093;-69
2021/03/28 03:23:15;;;;;;;3.63;1.88;;;7.80;80.60;;;;;;5094676;28;20016;-69
2021/03/28 03:25:43;;;;;;;2.55;1.65;;;7.80;80.60;;;;;;5080110;28;20033;-69
2021/03/28 03:28:20;;;;;;;3.53;2.03;;;7.80;80.60;;;;;;5074328;28;20032;-69
2021/03/28 03:31:08;;;;;;;2.95;1.08;;;7.80;80.70;;;;;;5074374;28;20515;-69
2021/03/28 03:34:06;;;;;;;10.18;2.85;;;7.80;80.80;;;;;;5073002;28;20112;-69
2021/03/28 03:37:11;;;;;;;3.70;1.45;;;7.80;80.90;;;;;;5074621;28;20040;-69
2021/03/28 03:40:10;;;;;;;0.60;0.60;;;7.80;80.90;;;;;;5074379;28;20041;-69
2021/03/28 03:43:00;;;;;;;5.97;1.50;;;7.80;80.90;;;;;;5043000;28;20129;-69
2021/03/28 03:45:49;;;;;;;5.30;1.52;;;7.80;80.90;;;;;;5074680;28;20174;-69
2021/03/28 03:48:33;;;;;;;3.60;1.90;;;7.90;81.00;;;;;;5074035;28;20067;-69
2021/03/28 03:51:07;;;;;;;8.10;1.92;;;7.90;80.90;;;;;;5074414;28;20060;-69
2021/03/28 03:54:05;;;;;;;2.08;1.25;;;7.90;80.90;;;;;;5079463;28;20032;-69
2021/03/28 03:57:03;;;;;;;9.95;2.45;;;7.90;80.90;;;;;;5092556;28;20528;-69
2021/03/28 03:59:48;;;;;;;14.98;3.25;;;7.90;80.90;;;;;;5056081;28;20048;-69
2021/03/28 04:02:24;;;;;;;3.75;1.40;;;7.90;80.90;;;;;;5073668;28;20077;-69
2021/03/28 04:05:31;;;;;;;7.22;2.58;;;7.90;80.70;;;;;;5074186;28;20032;-68
2021/03/28 04:08:31;;;;;;;8.02;2.88;;;8.00;80.70;;;;;;5004043;28;20037;-69
2021/03/28 04:11:15;;;;;;;5.32;1.65;;;8.00;80.70;;;;;;5073934;28;20055;-69
2021/03/28 04:13:47;;;;;;;9.75;2.70;;;8.00;80.80;;;;;;5074010;28;20025;-69
2021/03/28 04:16:54;;;;;;;9.82;2.67;;;7.90;81.00;;;;;;5073478;28;20032;-69
2021/03/28 04:19:38;;;;;;;2.55;1.48;;;7.90;81.20;;;;;;5035731;28;20426;-69
2021/03/28 04:22:38;;;;;;;5.60;2.30;;;7.90;81.40;;;;;;5073606;28;20472;-69
2021/03/28 04:25:51;;;;;;;8.70;2.20;;;7.90;81.40;;;;;;5073490;28;20115;-69
2021/03/28 04:28:35;;;;;;;5.67;1.50;;;7.90;81.60;;;;;;5072669;28;20044;-69
2021/03/28 04:31:28;;;;;;;3.47;2.05;;;7.80;81.60;;;;;;5072943;28;20032;-69
2021/03/28 04:33:58;;;;;;;7.00;2.40;;;7.80;81.70;;;;;;5073118;28;20491;-69
2021/03/28 04:36:39;;;;;;;5.85;2.03;;;7.90;81.80;;;;;;5073575;28;20494;-69
2021/03/28 04:39:34;;;;;;;17.65;3.45;;;7.90;82.00;;;;;;5072812;28;20020;-69
2021/03/28 04:42:24;;;;;;;8.85;2.92;;;7.80;82.00;;;;;;5073377;28;20120;-69
2021/03/28 04:44:55;;;;;;;1.17;1.00;;;7.80;82.30;;;;;;5072446;28;20039;-69
2021/03/28 04:47:58;;;;;;;8.88;3.15;;;7.80;82.40;;;;;;5073055;28;20025;-69
2021/03/28 04:50:36;;;;;;;6.38;2.33;;;7.80;82.50;;;;;;5073121;28;20028;-69
2021/03/28 04:53:23;;;;;;;4.80;2.15;;;7.80;82.60;;;;;;5055133;28;20036;-69
2021/03/28 04:56:11;;;;;;;1.83;1.52;;;7.80;82.70;;;;;;5083566;28;20078;-69
2021/03/28 04:58:51;;;;;;;4.50;1.63;;;7.80;82.80;;;;;;5072253;28;20071;-69
2021/03/28 05:01:28;;;;;;;5.13;1.92;;;7.80;82.80;;;;;;5072833;28;20040;-69
2021/03/28 05:04:28;;;;;;;8.98;2.67;;;7.80;82.80;;;;;;5073107;28;20067;-69
2021/03/28 05:07:27;;;;;;;8.85;2.45;;;7.90;82.90;;;;;;5072235;28;20021;-69
2021/03/28 05:10:10;;;;;;;8.00;2.92;;;7.80;82.90;;;;;;5073111;28;20024;-69
2021/03/28 05:12:48;;;;;;;9.40;1.92;;;7.80;82.90;;;;;;5072476;28;20040;-69
2021/03/28 05:15:48;;;;;;;6.32;2.78;;;7.90;83.10;;;;;;5072337;28;20033;-69
2021/03/28 05:18:38;;;;;;;8.32;2.20;;;7.80;83.20;;;;;;5072872;28;20021;-69
2021/03/28 05:21:43;;;;;;;12.18;2.38;;;7.90;83.40;;;;;;5079716;28;20486;-69
2021/03/28 05:24:32;;;;;;;4.97;1.83;;;7.80;83.60;;;;;;5073777;28;20095;-69
2021/03/28 05:27:19;;;;;;;3.53;1.83;;;7.80;83.60;;;;;;5071989;28;20036;-69
2021/03/28 05:29:53;;;;;;;14.77;3.22;;;7.70;83.60;;;;;;5072571;28;20028;-69
2021/03/28 05:32:54;;;;;;;5.60;1.98;;;7.80;83.70;;;;;;5073035;28;20033;-69
2021/03/28 05:35:47;;;;;;;11.32;2.92;;;7.80;83.80;;;;;;5072034;28;20115;-69
2021/03/28 05:38:50;;;;;;;8.07;2.38;;;7.80;83.70;;;;;;5072486;28;20020;-69
2021/03/28 05:41:37;;;;;;;1.60;1.17;;;7.80;83.70;;;;;;5071926;28;20028;-68
2021/03/28 05:44:40;;;;;;;17.83;2.05;;;7.80;83.70;;;;;;5073129;28;20033;-69
2021/03/28 05:47:15;;;;;;;3.97;2.08;;;7.80;83.80;;;;;;5080265;28;20109;-69
2021/03/28 05:50:02;;;;;;;9.15;3.03;;;7.80;83.80;;;;;;5072275;28;20037;-69
2021/03/28 05:52:58;;;;;;;11.88;3.25;;;7.80;83.80;;;;;;5076354;28;20112;-69
2021/03/28 05:55:45;;;;;;;4.63;2.30;;;7.80;83.90;;;;;;5079026;28;20070;-69
2021/03/28 05:58:19;;;;;;;11.82;3.05;;;7.80;84.00;;;;;;5080863;28;20041;-69
2021/03/28 06:01:05;;;;;;;15.25;3.38;;;7.80;84.00;;;;;;5076394;28;20502;-69
2021/03/28 06:03:49;;;;;;;16.35;3.05;;;7.70;84.20;;;;;;5076236;28;20131;-69
2021/03/28 06:06:30;;;;;;;6.82;2.53;;;7.70;84.30;;;;;;5076419;28;20039;-69
2021/03/28 06:09:48;;;;;;;8.45;2.55;;;7.70;84.60;;;;;;5075773;28;20030;-69
2021/03/28 06:12:35;;;;;;;10.18;3.15;;;7.60;84.90;;;;;;5076056;28;20024;-69
2021/03/28 06:15:46;;;;;;;13.52;2.63;;;7.70;85.10;;;;;;5076371;28;20705;-69
2021/03/28 06:18:44;;;;;;;5.93;2.33;;;7.70;85.20;;;;;;5071747;28;20044;-69
2021/03/28 06:21:24;;;;;;;10.75;2.65;;;7.70;85.20;;;;;;5075923;28;20040;-69
2021/03/28 06:24:11;;;;;;;8.05;2.75;;;7.70;85.20;;;;;;5075376;28;20109;-69
2021/03/28 06:27:04;;;;;;;6.00;2.03;;;7.70;85.30;;;;;;5075920;28;20032;-69
2021/03/28 06:29:48;;;;;;;9.60;2.75;;;7.70;85.20;;;;;;5075533;28;20039;-69
2021/03/28 06:32:35;;;;;;;9.05;2.17;;;7.70;85.20;;;;;;5075401;28;20028;-69
2021/03/28 06:35:42;;;;;;;4.75;2.08;;;7.80;85.40;;;;;;5075788;28;20033;-69
2021/03/28 06:38:45;;;;;;;6.38;1.42;;;7.80;85.40;;;;;;5075138;28;20028;-69
2021/03/28 06:41:24;;;;;;;6.30;2.70;;;7.80;85.40;;;;;;5075525;28;20043;-69
2021/03/28 06:44:23;;;;;;;3.75;1.98;;;7.80;85.40;;;;;;5057166;28;20025;-69
2021/03/28 06:47:18;;;;;;;7.68;1.98;;;7.80;85.50;;;;;;5075482;28;20052;-69
2021/03/28 06:50:30;;;;;;;9.88;2.40;;;7.90;85.60;;;;;;5037367;28;20060;-69
2021/03/28 06:53:20;;;;;;;10.68;3.33;;;7.80;85.70;;;;;;5075216;28;20024;-69
2021/03/28 06:55:46;;;;;;;13.38;3.88;;;7.80;85.90;;;;;;5075489;28;20029;-69
2021/03/28 06:58:48;;;;;;;13.20;3.22;;;7.90;86.20;;;;;;5074653;28;20048;-69
2021/03/28 07:01:40;;;;;;;4.88;2.55;;;7.90;86.50;;;;;;5075083;28;20037;-69
2021/03/28 07:04:24;;;;;;;16.40;3.90;;;7.90;86.50;;;;;;5075611;28;20044;-69
2021/03/28 07:07:07;;;;;;;7.13;2.83;;;7.90;86.60;;;;;;5074767;28;20043;-69
2021/03/28 07:10:07;;;;;;;21.60;4.15;;;7.90;86.80;;;;;;5075216;28;20032;-69
2021/03/28 07:12:50;;;;;;;13.73;3.53;;;7.90;87.00;;;;;;5074997;28;20056;-69
2021/03/28 07:15:39;;;;;;;7.78;2.72;;;7.90;87.20;;;;;;5074835;28;20129;-69
2021/03/28 07:18:35;;;;;;;9.40;3.25;;;8.00;87.40;;;;;;5057085;28;20135;-69
2021/03/28 07:21:18;;;;;;;10.73;3.58;;;8.00;87.60;;;;;;5074912;28;20072;-69
2021/03/28 07:23:59;;;;;;;11.43;3.38;;;8.00;87.60;;;;;;5074909;28;20033;-69
2021/03/28 07:27:08;;;;;;;7.38;2.00;;;8.10;87.80;;;;;;5074321;28;20123;-69
2021/03/28 07:30:24;;;;;;;8.40;3.35;;;8.10;87.90;;;;;;5074700;28;20395;-69
2021/03/28 07:33:23;;;;;;;13.27;4.07;;;8.10;88.00;;;;;;5052296;28;20043;-69
2021/03/28 07:36:00;;;;;;;10.75;3.03;;;8.10;88.10;;;;;;5074570;28;20028;-69
2021/03/28 07:39:04;;;;;;;11.32;3.17;;;8.20;88.10;;;;;;5074624;28;20037;-69
2021/03/28 07:41:43;;;;;;;12.77;3.50;;;8.20;88.10;;;;;;5074052;28;20123;-69
2021/03/28 07:44:51;;;;;;;6.13;2.40;;;8.30;88.30;;;;;;5074551;28;20028;-69
2021/03/28 07:47:30;;;;;;;10.90;3.10;;;8.30;88.40;;;;;;5086424;28;20115;-70
2021/03/28 07:50:28;;;;;;;9.93;2.60;;;8.30;88.30;;;;;;5085633;28;20465;-70
2021/03/28 07:53:31;;;;;;;10.10;3.40;;;8.40;88.30;;;;;;5083240;28;20089;-70
2021/03/28 07:56:15;;;;;;;13.32;2.80;;;8.40;88.30;;;;;;5089570;28;20036;-69
2021/03/28 07:58:52;;;;;;;7.40;2.70;;;8.50;88.40;;;;;;5089995;28;20048;-70
2021/03/28 08:01:18;;;;;;;13.55;3.13;;;8.40;88.30;;;;;;5090626;28;20055;-70
2021/03/28 08:04:02;;;;;;;3.30;1.60;;;8.50;88.40;;;;;;5090003;28;20468;-70
2021/03/28 08:06:55;;;;;;;11.30;3.38;;;8.60;88.40;;;;;;5092430;28;20046;-70
2021/03/28 08:09:38;;;;;;;6.43;2.75;;;8.60;88.50;;;;;;5081143;28;20053;-69
2021/03/28 08:12:24;;;;;;;6.00;2.50;;;8.70;88.50;;;;;;5088110;28;20028;-72
2021/03/28 08:14:49;;;;;;;10.27;2.78;;;8.70;88.40;;;;;;5088640;28;20490;-71
2021/03/28 08:17:37;;;;;;;14.15;3.72;;;8.70;88.60;;;;;;5090566;28;20048;-71
2021/03/28 08:20:14;;;;;;;12.73;2.75;;;8.80;88.90;;;;;;5091061;28;20479;-70
2021/03/28 08:23:17;;;;;;;11.25;2.55;;;8.80;89.00;;;;;;5091162;28;20028;-69
2021/03/28 08:26:07;;;;;;;11.27;3.05;;;8.80;89.10;;;;;;5092733;28;20024;-69
2021/03/28 08:28:44;;;;;;;8.40;2.28;;;8.90;89.10;;;;;;5093574;28;20043;-68
2021/03/28 08:31:41;;;;;;;11.32;3.38;;;8.90;89.00;;;;;;5092602;28;20024;-68
2021/03/28 08:34:40;;;;;;;11.48;2.70;;;9.00;89.00;;;;;;5061393;28;20041;-71
2021/03/28 08:37:50;;;;;;;13.10;3.03;;;9.10;88.90;;;;;;5092775;28;20530;-70
2021/03/28 08:40:46;;;;;;;10.55;2.50;;;9.10;88.80;;;;;;5020762;28;20053;-70
2021/03/28 08:43:39;;;;;;;5.57;1.88;;;9.10;88.70;;;;;;5092750;28;20031;-70
2021/03/28 08:46:38;;;;;;;12.93;3.10;;;9.20;88.60;;;;;;5092616;28;20026;-70
2021/03/28 08:49:24;;;;;;;6.75;2.33;;;9.30;88.40;;;;;;5092248;28;20518;-70
2021/03/28 08:52:28;;;;;;;7.78;2.03;;;9.30;88.30;;;;;;5085255;28;20038;-69
2021/03/28 08:55:31;;;;;;;6.28;2.33;;;9.30;88.40;;;;;;5089176;28;20092;-70
2021/03/28 08:58:23;;;;;;;11.70;2.47;;;9.40;88.40;;;;;;5054608;28;20043;-70
2021/03/28 09:01:01;;;;;;;7.75;2.17;;;9.30;88.40;;;;;;5072337;28;20067;-69
2021/03/28 09:03:51;;;;;;;9.68;2.38;;;9.40;88.30;;;;;;5090349;28;20036;-69
2021/03/28 09:06:41;;;;;;;11.35;1.70;;;9.50;88.20;;;;;;5088724;28;20053;-70
2021/03/28 09:09:56;;;;;;;9.48;2.55;;;9.50;88.10;;;;;;5088478;28;20486;-69
2021/03/28 09:12:44;;;;;;;4.30;2.00;;;9.60;88.10;;;;;;5053295;28;20040;-70
2021/03/28 09:15:22;;;;;;;10.13;2.70;;;9.60;87.90;;;;;;5088362;28;20510;-70
2021/03/28 09:18:25;;;;;;;10.98;2.85;;;9.70;87.80;;;;;;5089930;28;20114;-70
2021/03/28 09:21:05;;;;;;;7.97;2.58;;;9.70;87.50;;;;;;5085738;28;20024;-70
2021/03/28 09:23:42;;;;;;;9.30;2.33;;;9.70;87.40;;;;;;5088273;28;20493;-71
2021/03/28 09:26:33;;;;;;;6.95;2.30;;;9.70;87.40;;;;;;5084186;28;20025;-73
2021/03/28 09:29:35;;;;;;;15.48;2.60;;;9.80;87.60;;;;;;5087871;28;20028;-72
2021/03/28 09:32:26;;;;;;;8.30;2.60;;;9.80;87.30;;;;;;5087872;28;20418;-71
2021/03/28 09:35:19;;;;;;;11.18;3.17;;;9.80;87.00;;;;;;5085954;28;20103;-71
2021/03/28 09:38:05;;;;;;;9.88;2.83;;;9.90;87.00;;;;;;5084123;28;20151;-71
2021/03/28 09:40:58;;;;;;;3.80;1.73;;;9.90;86.90;;;;;;5082743;28;20390;-71
2021/03/28 09:43:59;;;;;;;17.35;3.72;;;9.90;87.00;;;;;;5091438;28;20020;-72
2021/03/28 09:46:54;;;;;;;6.05;2.35;;;10.00;87.00;;;;;;5040325;28;20031;-71
2021/03/28 09:49:41;;;;;;;8.90;2.63;;;10.00;86.70;;;;;;5089646;28;20040;-69
2021/03/28 09:52:35;;;;;;;7.60;2.80;;;10.10;86.40;;;;;;5085016;28;20029;-72
2021/03/28 09:55:32;;;;;;;7.60;2.60;;;10.20;86.30;;;;;;5085121;28;20070;-71
2021/03/28 09:58:28;;;;;;;10.23;2.85;;;10.30;86.50;;;;;;5089638;28;20044;-71
2021/03/28 10:00:59;;;;;;;8.27;2.42;;;10.30;86.20;;;;;;5089673;28;20032;-72
2021/03/28 10:03:27;;;;;;;11.23;2.38;;;10.20;86.50;;;;;;5090041;28;20085;-72
2021/03/28 10:06:17;;;;;;;11.35;2.88;;;10.30;86.70;;;;;;5087375;28;20025;-72
2021/03/28 10:08:48;;;;;;;8.43;2.78;;;10.40;86.10;;;;;;5085904;28;20028;-71
2021/03/28 10:11:47;;;;;;;8.30;3.08;;;10.40;85.90;;;;;;5088725;28;20451;-72
2021/03/28 10:14:41;;;;;;;9.40;2.83;;;10.40;85.70;;;;;;5088870;28;20028;-72
2021/03/28 10:17:45;;;;;;;12.48;3.13;;;10.50;85.50;;;;;;5088379;28;20475;-72
2021/03/28 10:20:22;;;;;;;13.80;2.97;;;10.50;85.60;;;;;;5088891;28;20089;-71
2021/03/28 10:23:25;;;;;;;14.40;2.80;;;10.50;85.40;;;;;;5086213;28;20090;-71
2021/03/28 10:26:08;;;;;;;6.35;2.60;;;10.60;85.80;;;;;;5086062;28;20024;-71
2021/03/28 10:28:56;;;;;;;9.35;3.08;;;10.70;85.00;;;;;;5069667;28;20492;-71
2021/03/28 10:31:25;;;;;;;12.13;1.95;;;10.70;85.40;;;;;;5088526;28;20773;-71
2021/03/28 10:34:08;;;;;;;9.35;2.60;;;10.70;85.90;;;;;;5088498;28;20056;-72
2021/03/28 10:37:11;;;;;;;9.68;2.42;;;10.80;85.80;;;;;;5088927;28;20036;-71
2021/03/28 10:40:06;;;;;;;7.57;2.60;;;10.80;85.90;;;;;;5085842;28;20036;-71
2021/03/28 10:42:42;;;;;;;13.30;2.80;;;10.80;85.50;;;;;;5085565;28;20043;-72
2021/03/28 10:45:34;;;;;;;10.50;3.30;;;10.70;85.80;;;;;;5091663;28;20372;-72
2021/03/28 10:48:12;;;;;;;7.57;2.50;;;10.70;86.30;;;;;;5091401;28;20370;-72
2021/03/28 10:50:53;;;;;;;7.90;2.53;;;10.80;86.90;;;;;;5092006;28;20055;-72
2021/03/28 10:53:57;;;;;;;10.68;3.00;;;10.80;86.70;;;;;;5090409;28;20028;-72
2021/03/28 10:56:44;;;;;;;6.80;2.22;;;10.90;86.20;;;;;;5091313;28;20763;-72
2021/03/28 10:59:18;;;;;;;7.05;2.88;;;10.90;86.40;;;;;;5091610;28;20043;-72
2021/03/28 11:02:12;;;;;;;7.47;2.40;;;10.90;86.20;;;;;;5092238;28;20135;-72
2021/03/28 11:05:05;;;;;;;12.70;3.47;;;10.90;86.20;;;;;;5092845;28;20038;-72
2021/03/28 11:07:57;;;;;;;13.23;2.78;;;11.00;86.00;;;;;;5090737;28;20081;-72
2021/03/28 11:11:04;;;;;;;6.97;2.50;;;11.00;86.10;;;;;;5091679;28;20119;-72
2021/03/28 11:13:42;;;;;;;6.32;2.10;;;11.00;86.20;;;;;;5050309;28;20070;-72
2021/03/28 11:16:26;;;;;;;8.40;3.00;;;11.00;86.20;;;;;;5092680;28;20092;-72
2021/03/28 11:19:14;;;;;;;;;;;11.00;85.90;;;;;;5092373;28;20034;-72
2021/03/28 11:22:06;;;;;;;14.27;2.35;;;10.90;86.10;;;;;;5072225;28;20022;-72
2021/03/28 11:24:39;;;;;;;9.38;2.22;;;11.00;86.30;;;;;;5090757;28;20762;-72
2021/03/28 11:27:35;;;;;;;10.33;2.67;;;10.90;86.40;;;;;;5089573;28;20035;-72
2021/03/28 11:30:37;;;;;;;6.95;2.67;;;10.90;86.40;;;;;;5089494;28;20039;-72
2021/03/28 11:33:29;;;;;;;7.53;2.83;;;10.90;86.50;;;;;;5090501;28;20024;-72
2021/03/28 11:35:55;;;;;;;10.38;3.17;;;10.90;86.70;;;;;;5091060;28;20024;-72
2021/03/28 11:38:20;;;;;;;9.15;2.83;;;10.90;86.80;;;;;;5091829;28;20031;-72
2021/03/28 11:40:53;;;;;;;10.98;2.70;;;10.90;86.80;;;;;;5088118;28;20096;-72
2021/03/28 11:43:24;;;;;;;8.52;2.63;;;10.90;86.80;;;;;;5088022;28;20020;-72
2021/03/28 11:46:11;;;;;;;11.45;3.45;;;10.90;87.00;;;;;;5090013;28;20111;-72
2021/03/28 11:48:45;;;;;;;4.10;2.03;;;10.90;86.90;;;;;;5091065;28;20064;-73
2021/03/28 11:51:18;;;;;;;9.75;2.97;;;10.90;86.90;;;;;;5091212;28;20077;-72
2021/03/28 11:53:46;;;;;;;14.27;3.00;;;10.90;87.10;;;;;;5087111;28;20826;-72
2021/03/28 11:56:50;;;;;;;9.35;2.97;;;10.90;87.00;;;;;;5090755;28;20055;-72
2021/03/28 11:59:28;;;;;;;12.73;2.77;;;10.90;87.00;;;;;;5091243;28;20559;-72
2021/03/28 12:01:59;;;;;;;8.00;2.65;;;10.90;87.00;;;;;;5088061;28;20079;-72
2021/03/28 12:04:28;;;;;;;10.77;3.10;;;10.80;87.30;;;;;;5091517;28;20032;-72
2021/03/28 12:07:31;;;;;;;8.23;2.67;;;10.80;87.60;;;;;;5085361;28;20074;-72
2021/03/28 12:09:59;;;;;;;16.50;3.10;;;10.80;87.70;;;;;;5088688;28;20032;-73
2021/03/28 12:12:48;;;;;;;9.32;3.00;;;10.80;87.80;;;;;;5088634;28;20032;-72
2021/03/28 12:15:44;;;;;;;15.38;3.00;;;10.80;87.80;;;;;;5088196;28;20024;-72
2021/03/28 12:18:22;;;;;;;16.70;2.78;;;10.80;87.70;;;;;;5090978;28;20119;-75
2021/03/28 12:21:03;;;;;;;9.82;3.10;;;10.80;87.80;;;;;;5091277;28;20098;-71
2021/03/28 12:23:42;;;;;;;8.85;2.60;;;10.80;87.90;;;;;;5090208;28;20522;-72
2021/03/28 12:26:28;;;;;;;8.65;1.83;;;10.90;87.90;;;;;;5089253;28;20047;-73
2021/03/28 12:28:58;;;;;;;13.40;2.95;;;10.90;88.20;;;;;;5088371;28;20062;-69
2021/03/28 12:31:38;;;;;;;11.48;2.20;;;10.80;88.30;;;;;;5088809;28;20024;-70
2021/03/28 12:34:25;;;;;;;13.30;2.83;;;10.90;88.50;;;;;;5088606;28;20028;-72
2021/03/28 12:36:51;;;;;;;9.43;2.78;;;10.80;88.50;;;;;;5087251;28;20360;-69
2021/03/28 12:39:33;;;;;;;8.57;2.78;;;10.80;88.50;;;;;;5080546;28;20054;-70
2021/03/28 12:42:02;;;;;;;10.82;3.17;;;10.80;88.80;;;;;;5091315;28;20044;-69
2021/03/28 12:44:39;;;;;;;10.40;2.92;;;10.80;88.90;;;;;;5084443;28;20020;-70
2021/03/28 12:47:22;;;;;;;14.93;3.22;;;10.90;89.00;;;;;;5088183;28;20463;-70
2021/03/28 12:50:08;;;;;;;9.00;2.83;;;10.90;89.00;;;;;;5086571;28;20025;-70
2021/03/28 12:53:14;;;;;;;13.50;3.17;;;10.90;89.00;;;;;;5086756;28;20035;-70
2021/03/28 12:55:53;;;;;;;5.60;2.20;;;10.80;89.00;;;;;;5069078;28;20028;-70
2021/03/28 12:58:39;;;;;;;10.65;2.63;;;10.90;89.00;;;;;;5085340;28;20039;-70
2021/03/28 13:01:20;;;;;;;6.90;2.53;;;10.90;88.90;;;;;;5090647;28;20050;-69
2021/03/28 13:03:48;;;;;;;6.43;2.00;;;10.90;88.80;;;;;;5089545;28;20383;-70
2021/03/28 13:06:30;;;;;;;10.50;3.38;;;10.90;88.80;;;;;;5072437;28;20051;-69
2021/03/28 13:09:16;;;;;;;13.55;2.78;;;10.90;88.80;;;;;;5088761;28;20030;-70
2021/03/28 13:11:52;;;;;;;9.25;3.08;;;11.00;88.90;;;;;;5076108;28;20479;-68
2021/03/28 13:14:35;;;;;;;14.95;2.95;;;10.90;88.80;;;;;;5078912;28;20509;-69
2021/03/28 13:17:03;;;;;;;16.67;3.35;;;10.90;88.80;;;;;;5089285;28;20036;-69
2021/03/28 13:19:36;;;;;;;12.07;2.67;;;10.90;88.70;;;;;;5087971;28;20093;-69
2021/03/28 13:22:22;;;;;;;10.57;2.47;;;10.90;88.70;;;;;;5087638;28;20036;-69
2021/03/28 13:24:49;;;;;;;12.52;2.60;;;10.90;88.70;;;;;;5078004;28;20112;-69
2021/03/28 13:27:20;;;;;;;12.43;2.47;;;10.90;88.80;;;;;;5089657;28;20020;-70
2021/03/28 13:29:53;;;;;;;15.38;3.38;;;10.90;89.00;;;;;;5089500;28;20376;-70
2021/03/28 13:32:39;;;;;;;8.25;2.38;;;10.90;89.10;;;;;;5082725;28;20031;-69
2021/03/28 13:35:28;;;;;;;14.55;3.00;;;10.90;89.00;;;;;;5088563;28;20411;-69
2021/03/28 13:37:56;;;;;;;6.20;2.53;;;10.90;88.90;;;;;;5087568;28;20035;-70
2021/03/28 13:40:29;;;;;;;6.82;2.42;;;10.90;88.70;;;;;;5087637;28;20071;-68
2021/03/28 13:42:58;;;;;;;12.95;2.45;;;10.80;89.00;;;;;;5067308;28;20024;-69
2021/03/28 13:45:34;;;;;;;17.85;2.65;;;10.80;89.00;;;;;;5087986;28;20040;-69
2021/03/28 13:48:09;;;;;;;16.08;2.83;;;10.80;89.00;;;;;;5084654;28;20039;-69
2021/03/28 13:51:15;;;;;;;18.13;3.33;;;10.90;89.10;;;;;;5084503;28;20024;-79
2021/03/28 13:53:54;;;;;;;7.85;3.00;;;10.80;88.90;;;;;;5084616;28;20035;-68
2021/03/28 13:56:41;;;;;;;21.23;3.38;;;10.90;88.80;;;;;;5085600;28;20043;-68
2021/03/28 13:59:26;;;;;;;8.98;1.90;;;10.90;88.50;;;;;;5085845;28;20058;-69
2021/03/28 14:01:59;;;;;;;15.40;3.10;;;10.90;88.40;;;;;;5087375;28;20109;-68
2021/03/28 14:04:34;;;;;;;9.77;2.60;;;11.00;88.40;;;;;;5087753;28;20073;-69
2021/03/28 14:07:11;;;;;;;15.52;3.08;;;10.90;88.40;;;;;;5088241;28;20115;-74
2021/03/28 14:09:42;;;;;;;11.65;2.78;;;10.90;88.50;;;;;;5087154;28;20109;-69
2021/03/28 14:12:20;;;;;;;15.63;3.25;;;11.00;88.50;;;;;;5086404;28;20120;-69
2021/03/28 14:14:48;;;;;;;7.30;2.90;;;11.00;88.50;;;;;;5087364;28;20032;-69
2021/03/28 14:17:33;;;;;;;10.90;2.55;;;11.00;88.50;;;;;;5088393;28;20107;-69
2021/03/28 14:20:20;;;;;;;19.33;2.95;;;10.90;88.60;;;;;;5091693;28;20048;-69
2021/03/28 14:23:14;;;;;;;12.30;2.95;;;11.00;88.60;;;;;;5090670;28;20039;-69
2021/03/28 14:25:46;;;;;;;10.27;2.80;;;11.00;88.50;;;;;;5092588;28;20364;-68
2021/03/28 14:28:27;;;;;;;12.10;3.13;;;10.90;88.40;;;;;;5091835;28;20031;-68
2021/03/28 14:31:02;;;;;;;8.55;2.53;;;11.00;88.40;;;;;;5088201;28;20074;-69